Terminal Aerodrome Forecast
Issued by NWS

Home | Current Version | Previous Version | Text Only | Print | Product List | Glossary On
Versions: 1 2 3 4 5 6 7 8 9 10 11 12 13 14 15 16 17 18 19 20 21
000
FTUS43 KMQT 020100 AAA
TAFCMX
TAF AMD
KCMX 020108Z 0201/0224 17007KT P6SM -SHRA OVC015
     FM020800 22005KT 3SM -DZ BR OVC010
     FM021300 22005KT 5SM BR OVC015
     FM021800 27003KT P6SM OVC015
     FM022100 09006KT P6SM OVC015=

USA.gov is the U.S. government's official web portal to all federal, state and local government web resources and services.